Time;durP1;ratioP1;P1;durP2;ratioP2;P2;SDS_P1;SDS_P2;PMS_P1;PMS_P2;Temp;Humidity;BMP_temperature;BMP_pressure;BME280_temperature;BME280_humidity;BME280_pressure;Samples;Min_cycle;Max_cycle;Signal;HPM_P1;HPM_P2
2023/03/10 00:00:58;;;;;;;4.80;3.30;;;-0.80;99.90;-1.90;98785;;;;567433;249;24070;-77
2023/03/10 00:03:26;;;;;;;9.60;5.07;;;-0.90;99.90;-2.00;98788;;;;567290;249;24097;-78
2023/03/10 00:05:54;;;;;;;9.13;6.40;;;-0.90;99.90;-2.00;98787;;;;567417;249;24043;-74
2023/03/10 00:08:22;;;;;;;11.33;7.00;;;-0.90;99.90;-1.90;98786;;;;568567;248;24135;-72
2023/03/10 00:10:50;;;;;;;11.27;5.07;;;-0.90;99.90;-2.00;98788;;;;568526;248;24031;-71
2023/03/10 00:13:19;;;;;;;13.47;6.37;;;-0.90;99.90;-2.00;98785;;;;568180;248;24047;-71
2023/03/10 00:15:47;;;;;;;13.10;6.17;;;-0.90;99.90;-2.00;98779;;;;568204;249;24047;-75
2023/03/10 00:18:15;;;;;;;7.60;5.13;;;-0.90;99.90;-2.00;98778;;;;567863;249;24058;-73
2023/03/10 00:20:43;;;;;;;7.90;5.43;;;-1.00;99.90;-2.00;98768;;;;567755;249;24039;-74
2023/03/10 00:23:11;;;;;;;7.97;5.37;;;-1.00;99.90;-2.00;98776;;;;568328;249;24036;-75
2023/03/10 00:25:39;;;;;;;9.60;5.00;;;-1.00;99.90;-2.10;98769;;;;568180;249;24062;-71
2023/03/10 00:28:06;;;;;;;10.60;6.20;;;-1.00;99.90;-2.00;98781;;;;563110;249;45922;-73
2023/03/10 00:30:34;;;;;;;5.53;3.20;;;-1.00;99.90;-2.00;98780;;;;568040;249;24094;-76
2023/03/10 00:33:02;;;;;;;2.83;2.53;;;-0.90;99.90;-2.00;98763;;;;568041;249;24091;-73
2023/03/10 00:35:30;;;;;;;11.93;4.97;;;-0.90;99.90;-2.00;98765;;;;568035;249;24084;-76
2023/03/10 00:37:58;;;;;;;7.70;4.40;;;-0.90;99.90;-2.00;98766;;;;567983;249;24032;-73
2023/03/10 00:40:27;;;;;;;8.30;4.53;;;-0.90;99.90;-1.90;98759;;;;567728;249;24086;-74
2023/03/10 00:42:55;;;;;;;8.97;5.27;;;-0.80;99.90;-1.90;98764;;;;567561;249;24050;-75
2023/03/10 00:45:23;;;;;;;6.83;4.43;;;-0.90;99.90;-1.90;98748;;;;567505;249;24039;-72
2023/03/10 00:47:51;;;;;;;10.77;5.40;;;-0.80;99.90;-1.90;98743;;;;567803;249;24054;-74
2023/03/10 00:50:19;;;;;;;7.43;4.67;;;-0.80;99.90;-1.90;98743;;;;567826;249;24029;-74
2023/03/10 00:52:50;;;;;;;5.60;4.33;;;-0.80;99.90;-1.90;98735;;;;567804;249;24062;-76
2023/03/10 00:55:15;;;;;;;8.17;4.93;;;-0.80;99.90;-1.90;98726;;;;567738;249;24058;-77
2023/03/10 00:57:43;;;;;;;6.90;4.60;;;-0.80;99.90;-1.90;98727;;;;567667;249;24150;-74
2023/03/10 01:00:15;;;;;;;7.57;4.40;;;-0.80;99.90;-1.80;98725;;;;567461;249;24071;-76
2023/03/10 01:02:39;;;;;;;6.70;4.33;;;-0.80;99.90;-1.90;98721;;;;566417;249;24150;-77
2023/03/10 01:05:07;;;;;;;7.63;4.33;;;-0.80;99.90;-1.90;98718;;;;567428;249;24046;-75
2023/03/10 01:07:35;;;;;;;7.05;4.45;;;-0.80;99.90;-1.90;98710;;;;566006;249;34987;-77
2023/03/10 01:10:03;;;;;;;2.33;2.13;;;-0.80;99.90;-1.80;98720;;;;567522;249;24100;-75
2023/03/10 01:12:30;;;;;;;3.03;2.07;;;-0.80;99.90;-1.80;98710;;;;567344;249;24048;-75
2023/03/10 01:14:58;;;;;;;6.53;3.90;;;-0.70;99.90;-1.80;98699;;;;567515;249;24144;-78
2023/03/10 01:17:26;;;;;;;6.27;3.60;;;-0.70;99.90;-1.80;98696;;;;567386;249;24040;-77
2023/03/10 01:19:54;;;;;;;6.37;4.23;;;-0.70;99.90;-1.80;98689;;;;568633;248;24153;-78
2023/03/10 01:22:26;;;;;;;6.73;4.67;;;-0.70;99.90;-1.80;98694;;;;568420;248;24039;-77
2023/03/10 01:24:50;;;;;;;7.60;4.53;;;-0.70;99.90;-1.80;98693;;;;567763;248;25100;-77
2023/03/10 01:27:18;;;;;;;7.03;4.27;;;-0.70;99.90;-1.80;98691;;;;568227;249;24085;-74
2023/03/10 01:29:46;;;;;;;9.30;4.30;;;-0.80;99.90;-1.90;98690;;;;567926;249;24036;-77
2023/03/10 01:32:14;;;;;;;7.13;4.33;;;-0.80;99.90;-1.90;98694;;;;567796;249;24084;-78
2023/03/10 01:34:42;;;;;;;5.13;3.80;;;-0.80;99.90;-1.90;98691;;;;568021;249;24049;-78
2023/03/10 01:37:10;;;;;;;5.63;3.67;;;-0.80;99.90;-1.90;98679;;;;567681;249;24109;-75
2023/03/10 01:39:37;;;;;;;7.20;4.67;;;-0.90;99.90;-2.00;98680;;;;567772;249;24046;-75
2023/03/10 01:42:05;;;;;;;7.50;4.30;;;-0.90;99.90;-2.00;98672;;;;568053;249;24409;-72
2023/03/10 01:44:33;;;;;;;5.10;4.07;;;-0.90;99.90;-2.00;98678;;;;567994;249;25141;-76
2023/03/10 01:47:01;;;;;;;6.60;4.13;;;-0.90;99.90;-2.00;98679;;;;567737;249;24114;-77
2023/03/10 01:49:41;;;;;;;5.87;4.17;;;-0.90;99.90;-2.10;98673;;;;567528;249;24085;-74
2023/03/10 01:52:16;;;;;;;7.57;4.30;;;-1.00;99.90;-2.10;98670;;;;576140;248;24042;-73
2023/03/10 01:55:13;;;;;;;7.03;4.60;;;-1.00;99.90;-2.10;98666;;;;567126;249;24083;-76
2023/03/10 01:57:44;;;;;;;7.20;4.53;;;-1.00;99.90;-2.10;98670;;;;564122;249;24077;-77
2023/03/10 02:00:13;;;;;;;7.57;4.53;;;-1.00;99.90;-2.10;98649;;;;567534;249;24101;-72
2023/03/10 02:02:59;;;;;;;7.10;4.33;;;-1.00;99.90;-2.10;98653;;;;571321;249;24047;-72
2023/03/10 02:05:30;;;;;;;7.63;3.80;;;-1.00;99.90;-2.10;98658;;;;567571;249;24069;-75
2023/03/10 02:07:55;;;;;;;7.70;4.00;;;-1.10;99.90;-2.20;98649;;;;576040;249;24067;-73
2023/03/10 02:10:23;;;;;;;7.03;3.60;;;-1.10;99.90;-2.20;98648;;;;576324;248;24048;-73
2023/03/10 02:12:51;;;;;;;6.03;4.40;;;-1.10;99.90;-2.30;98640;;;;567729;249;24043;-73
2023/03/10 02:15:19;;;;;;;6.77;4.33;;;-1.20;99.90;-2.30;98638;;;;567751;249;24052;-72
2023/03/10 02:17:47;;;;;;;9.97;4.53;;;-1.20;99.90;-2.30;98632;;;;567752;249;24068;-76
2023/03/10 02:20:56;;;;;;;8.40;4.97;;;-1.20;99.90;-2.30;98628;;;;571300;249;24069;-72
2023/03/10 02:23:38;;;;;;;5.80;4.53;;;-1.20;99.90;-2.40;98628;;;;567471;249;24114;-73
2023/03/10 02:26:21;;;;;;;6.77;4.27;;;-1.30;99.90;-2.40;98626;;;;562764;249;24003;-74
2023/03/10 02:28:49;;;;;;;5.37;3.80;;;-1.30;99.90;-2.40;98620;;;;560081;249;23991;-72
2023/03/10 02:31:17;;;;;;;8.37;4.47;;;-1.30;99.90;-2.40;98610;;;;568301;248;24087;-72
2023/03/10 02:33:45;;;;;;;7.07;4.80;;;-1.30;99.90;-2.40;98618;;;;557840;253;24058;-74
2023/03/10 02:36:19;;;;;;;6.50;4.37;;;-1.30;99.90;-2.50;98611;;;;568020;249;23994;-76
2023/03/10 02:38:48;;;;;;;6.83;4.50;;;-1.40;99.90;-2.50;98605;;;;566387;252;25043;-77
2023/03/10 02:41:16;;;;;;;7.70;4.47;;;-1.40;99.90;-2.50;98608;;;;571381;249;24011;-76
2023/03/10 02:43:44;;;;;;;6.87;4.40;;;-1.50;99.90;-2.60;98598;;;;557536;253;24077;-72
2023/03/10 02:46:12;;;;;;;6.87;4.37;;;-1.40;99.90;-2.60;98602;;;;556929;254;24027;-74
2023/03/10 02:48:40;;;;;;;5.40;4.07;;;-1.40;99.90;-2.60;98590;;;;567577;249;24044;-78
2023/03/10 02:51:11;;;;;;;9.27;4.87;;;-1.50;99.90;-2.60;98586;;;;557086;253;24060;-77
2023/03/10 02:53:38;;;;;;;7.80;5.78;;;-1.50;99.90;-2.60;98589;;;;562424;249;34537;-72
2023/03/10 02:56:06;;;;;;;3.00;2.27;;;-1.50;99.90;-2.60;98592;;;;556355;253;24083;-73
2023/03/10 02:58:34;;;;;;;3.97;3.47;;;-1.50;99.90;-2.60;98591;;;;553044;254;24028;-74
2023/03/10 03:01:03;;;;;;;8.50;5.00;;;-1.50;99.90;-2.60;98585;;;;566920;249;24065;-73
2023/03/10 03:03:34;;;;;;;7.67;5.10;;;-1.50;99.90;-2.60;98578;;;;557224;253;24038;-77
2023/03/10 03:05:59;;;;;;;7.67;4.60;;;-1.50;99.90;-2.60;98579;;;;571296;249;24006;-76
2023/03/10 03:08:27;;;;;;;8.37;4.53;;;-1.50;99.90;-2.60;98570;;;;566941;249;24005;-72
2023/03/10 03:10:55;;;;;;;8.77;4.83;;;-1.50;99.90;-2.60;98567;;;;563655;253;24124;-73
2023/03/10 03:13:23;;;;;;;6.67;4.60;;;-1.50;99.90;-2.70;98568;;;;566923;249;23990;-72
2023/03/10 03:15:50;;;;;;;10.53;6.07;;;-1.50;99.90;-2.70;98567;;;;566901;249;23991;-73
2023/03/10 03:18:19;;;;;;;8.20;5.67;;;-1.60;99.90;-2.70;98550;;;;576293;248;23981;-73
2023/03/10 03:20:47;;;;;;;8.03;5.87;;;-1.60;99.90;-2.70;98539;;;;566976;249;23982;-74
2023/03/10 03:23:15;;;;;;;7.23;5.23;;;-1.60;99.90;-2.70;98534;;;;566886;249;24014;-72
2023/03/10 03:25:43;;;;;;;10.13;5.50;;;-1.60;99.90;-2.80;98541;;;;566974;249;24008;-74
2023/03/10 03:28:11;;;;;;;8.07;5.63;;;-1.60;99.90;-2.80;98531;;;;575469;248;23983;-72
2023/03/10 03:30:40;;;;;;;9.47;4.90;;;-1.70;99.90;-2.80;98516;;;;566704;249;24033;-72
2023/03/10 03:33:08;;;;;;;7.23;6.03;;;-1.70;99.90;-2.80;98531;;;;576366;248;23997;-74
2023/03/10 03:35:40;;;;;;;11.33;6.37;;;-1.70;99.90;-2.80;98527;;;;566829;249;24030;-73
2023/03/10 03:38:07;;;;;;;7.63;5.83;;;-1.70;99.90;-2.90;98525;;;;566554;249;23998;-72
2023/03/10 03:40:36;;;;;;;12.43;8.90;;;-1.70;99.90;-2.80;98515;;;;561732;249;34386;-72
2023/03/10 03:43:01;;;;;;;3.70;2.47;;;-1.70;99.90;-2.80;98516;;;;568102;248;23995;-75
2023/03/10 03:45:30;;;;;;;6.85;4.20;;;-1.70;99.90;-2.80;98511;;;;563361;249;34342;-74
2023/03/10 03:47:57;;;;;;;2.70;2.37;;;-1.70;99.90;-2.80;98513;;;;568028;249;24020;-76
2023/03/10 03:50:25;;;;;;;3.03;1.93;;;-1.70;99.90;-2.80;98501;;;;567541;249;24018;-77
2023/03/10 03:52:53;;;;;;;5.37;3.27;;;-1.70;99.90;-2.80;98497;;;;563507;249;24004;-74
2023/03/10 03:55:21;;;;;;;8.57;5.80;;;-1.70;99.90;-2.80;98499;;;;567502;249;23986;-76
2023/03/10 03:57:49;;;;;;;11.33;6.93;;;-1.70;99.90;-2.80;98494;;;;563503;249;24028;-75
2023/03/10 04:00:17;;;;;;;10.57;7.33;;;-1.70;99.90;-2.80;98485;;;;567182;249;24034;-77
2023/03/10 04:02:47;;;;;;;10.60;7.07;;;-1.70;99.90;-2.80;98482;;;;565732;249;23982;-78
2023/03/10 04:05:12;;;;;;;11.33;7.93;;;-1.70;99.90;-2.80;98479;;;;566925;249;24024;-75
2023/03/10 04:07:44;;;;;;;9.57;7.40;;;-1.70;99.90;-2.80;98477;;;;567240;249;23989;-75
2023/03/10 04:10:09;;;;;;;15.63;8.67;;;-1.70;99.90;-2.80;98470;;;;562403;249;24023;-76
2023/03/10 04:12:37;;;;;;;15.43;9.23;;;-1.70;99.90;-2.90;98463;;;;567159;249;24004;-78
2023/03/10 04:15:09;;;;;;;17.20;8.63;;;-1.70;99.90;-2.80;98460;;;;575745;248;24006;-73
2023/03/10 04:17:33;;;;;;;17.60;10.37;;;-1.70;99.90;-2.80;98442;;;;566784;249;23998;-74
2023/03/10 04:20:01;;;;;;;15.53;9.07;;;-1.70;99.90;-2.80;98434;;;;563090;249;24025;-74
2023/03/10 04:22:29;;;;;;;13.13;8.03;;;-1.70;99.90;-2.80;98439;;;;566798;249;23990;-76
2023/03/10 04:24:58;;;;;;;10.40;7.17;;;-1.70;99.90;-2.80;98438;;;;573265;249;24048;-77
2023/03/10 04:27:25;;;;;;;14.47;8.47;;;-1.70;99.90;-2.80;98424;;;;566893;249;23987;-73
2023/03/10 04:29:53;;;;;;;10.83;8.70;;;-1.70;99.90;-2.80;98428;;;;566873;249;24022;-75
2023/03/10 04:32:21;;;;;;;13.90;8.90;;;-1.70;99.90;-2.80;98426;;;;567011;249;23983;-77
2023/03/10 04:34:49;;;;;;;14.07;8.50;;;-1.70;99.90;-2.80;98415;;;;567060;249;23987;-77
2023/03/10 04:37:17;;;;;;;15.07;9.60;;;-1.70;99.90;-2.80;98422;;;;566988;249;24036;-77
2023/03/10 04:39:46;;;;;;;16.13;8.90;;;-1.70;99.90;-2.80;98422;;;;567092;249;23991;-78
2023/03/10 04:42:14;;;;;;;14.23;9.87;;;-1.70;99.90;-2.80;98423;;;;566996;249;23993;-73
2023/03/10 04:44:42;;;;;;;17.43;10.23;;;-1.70;99.90;-2.80;98410;;;;566910;249;24002;-75
2023/03/10 04:47:10;;;;;;;14.43;9.63;;;-1.70;99.90;-2.90;98404;;;;566841;249;24018;-74
2023/03/10 04:49:38;;;;;;;15.57;9.63;;;-1.70;99.90;-2.90;98403;;;;566921;249;23997;-72
2023/03/10 04:52:06;;;;;;;17.50;9.90;;;-1.70;99.90;-2.90;98405;;;;567303;249;24028;-76
2023/03/10 04:54:34;;;;;;;13.77;10.03;;;-1.70;99.90;-2.90;98401;;;;568509;248;23996;-73
2023/03/10 04:57:02;;;;;;;11.20;8.23;;;-1.70;99.90;-2.80;98397;;;;564402;249;24028;-72
2023/03/10 04:59:30;;;;;;;12.77;9.20;;;-1.70;99.90;-2.80;98398;;;;568072;249;24010;-74
2023/03/10 05:01:58;;;;;;;15.57;10.53;;;-1.70;99.90;-2.90;98383;;;;567964;249;24010;-72
2023/03/10 05:04:26;;;;;;;16.13;10.47;;;-1.80;99.90;-2.90;98386;;;;563887;249;24052;-73
2023/03/10 05:06:54;;;;;;;14.53;10.10;;;-1.80;99.90;-2.90;98387;;;;563953;249;24006;-72
2023/03/10 05:09:21;;;;;;;18.10;9.50;;;-1.80;99.90;-2.90;98367;;;;563862;249;24058;-75
2023/03/10 05:11:50;;;;;;;14.87;8.07;;;-1.80;99.90;-2.80;98373;;;;567668;249;24064;-78
2023/03/10 05:14:19;;;;;;;14.73;8.70;;;-1.80;99.90;-2.90;98367;;;;567481;249;24013;-76
2023/03/10 05:16:48;;;;;;;12.87;8.83;;;-1.80;99.90;-2.80;98369;;;;576092;248;24007;-76
2023/03/10 05:19:16;;;;;;;11.40;8.20;;;-1.80;99.90;-2.90;98365;;;;576111;248;24006;-75
2023/03/10 05:21:43;;;;;;;12.23;8.50;;;-1.80;99.90;-2.90;98358;;;;567467;249;25060;-77
2023/03/10 05:24:11;;;;;;;14.27;9.07;;;-1.80;99.90;-2.80;98361;;;;567481;249;24050;-76
2023/03/10 05:26:40;;;;;;;16.60;10.30;;;-1.70;99.90;-2.80;98355;;;;567494;249;24015;-76
2023/03/10 05:29:07;;;;;;;16.87;11.50;;;-1.70;99.90;-2.80;98350;;;;563559;249;24148;-76
2023/03/10 05:31:35;;;;;;;16.70;10.30;;;-1.70;99.90;-2.80;98338;;;;563371;249;23997;-77
2023/03/10 05:34:03;;;;;;;17.00;10.30;;;-1.70;99.90;-2.80;98343;;;;563444;249;25023;-75
2023/03/10 05:36:32;;;;;;;15.40;9.23;;;-1.70;99.90;-2.80;98338;;;;567240;249;24012;-72
2023/03/10 05:39:00;;;;;;;20.80;10.93;;;-1.70;99.90;-2.80;98343;;;;563335;249;24014;-74
2023/03/10 05:41:28;;;;;;;21.27;10.67;;;-1.70;99.90;-2.80;98324;;;;563239;249;24030;-73
2023/03/10 05:43:56;;;;;;;14.73;10.67;;;-1.70;99.90;-2.70;98325;;;;563421;249;25023;-71
2023/03/10 05:46:28;;;;;;;19.07;7.87;;;-1.70;99.90;-2.70;98329;;;;563328;249;24100;-71
2023/03/10 05:48:52;;;;;;;15.67;9.40;;;-1.60;99.90;-2.80;98325;;;;576227;247;24124;-76
2023/03/10 05:51:20;;;;;;;15.83;10.13;;;-1.70;99.90;-2.80;98322;;;;566748;249;23999;-76
2023/03/10 05:53:48;;;;;;;17.10;9.63;;;-1.70;99.90;-2.70;98317;;;;563416;249;23998;-73
2023/03/10 05:56:16;;;;;;;15.20;10.00;;;-1.70;99.90;-2.70;98313;;;;567249;249;25045;-74
2023/03/10 05:58:44;;;;;;;12.47;9.70;;;-1.70;99.90;-2.70;98320;;;;566860;249;24013;-79
2023/03/10 06:01:12;;;;;;;14.07;8.57;;;-1.60;99.90;-2.70;98314;;;;566854;249;24021;-77
2023/03/10 06:03:39;;;;;;;20.00;10.23;;;-1.60;99.90;-2.60;98311;;;;562976;249;24037;-74
2023/03/10 06:06:07;;;;;;;14.73;9.67;;;-1.60;99.90;-2.60;98294;;;;564285;248;23985;-73
2023/03/10 06:08:36;;;;;;;15.37;9.30;;;-1.60;99.90;-2.60;98296;;;;576535;248;23995;-79
2023/03/10 06:11:04;;;;;;;15.23;9.77;;;-1.60;99.90;-2.60;98302;;;;576334;248;24014;-77
2023/03/10 06:13:32;;;;;;;15.53;10.30;;;-1.50;99.90;-2.60;98292;;;;567608;249;24010;-77
2023/03/10 06:16:00;;;;;;;15.13;8.97;;;-1.50;99.90;-2.60;98282;;;;563447;249;24029;-73
2023/03/10 06:18:28;;;;;;;17.63;10.63;;;-1.50;99.90;-2.60;98280;;;;567311;249;24004;-78
2023/03/10 06:20:56;;;;;;;10.73;7.97;;;-1.50;99.90;-2.60;98290;;;;563445;249;24060;-79
2023/03/10 06:23:28;;;;;;;15.40;9.17;;;-1.50;99.90;-2.60;98279;;;;567278;249;24023;-77
2023/03/10 06:26:05;;;;;;;12.97;7.97;;;-1.50;99.90;-2.60;98280;;;;566829;249;24067;-78
2023/03/10 06:28:31;;;;;;;13.33;8.43;;;-1.50;99.90;-2.50;98268;;;;563532;249;23996;-78
2023/03/10 06:31:02;;;;;;;15.60;8.30;;;-1.40;99.90;-2.50;98272;;;;567066;249;24018;-76
2023/03/10 06:33:27;;;;;;;18.85;10.70;;;-1.40;99.90;-2.50;98279;;;;562086;249;34370;-71
2023/03/10 06:35:55;;;;;;;2.10;1.10;;;-1.40;99.90;-2.50;98264;;;;563286;249;24006;-72
2023/03/10 06:38:23;;;;;;;0.50;0.50;;;-1.40;99.90;-2.40;98253;;;;567007;249;24000;-72
2023/03/10 06:40:51;;;;;;;1.73;1.47;;;-1.30;99.90;-2.40;98264;;;;567031;249;24003;-73
2023/03/10 06:43:19;;;;;;;8.60;5.53;;;-1.20;99.90;-2.30;98269;;;;575427;248;23991;-73
2023/03/10 06:45:47;;;;;;;6.97;5.20;;;-1.20;99.90;-2.30;98262;;;;566969;249;23998;-72
2023/03/10 06:48:15;;;;;;;8.33;4.80;;;-1.20;99.90;-2.30;98256;;;;575264;249;24089;-73
2023/03/10 06:50:47;;;;;;;10.30;5.53;;;-1.20;99.90;-2.20;98258;;;;557347;253;24042;-74
2023/03/10 06:53:11;;;;;;;9.53;4.83;;;-1.10;99.90;-2.20;98256;;;;556976;253;24020;-73
2023/03/10 06:55:40;;;;;;;6.93;4.93;;;-1.00;99.90;-2.10;98255;;;;560833;253;25180;-76
2023/03/10 06:58:12;;;;;;;6.67;4.87;;;-1.00;99.90;-2.10;98250;;;;564554;249;24012;-73
2023/03/10 07:00:38;;;;;;;6.13;3.70;;;-1.00;99.90;-2.00;98247;;;;556792;253;24019;-75
2023/03/10 07:03:04;;;;;;;7.50;4.43;;;-0.90;99.90;-2.00;98250;;;;566873;249;24016;-75
2023/03/10 07:05:32;;;;;;;8.90;4.43;;;-0.90;99.90;-2.00;98236;;;;555753;253;24019;-74
2023/03/10 07:08:01;;;;;;;5.97;4.20;;;-0.90;99.90;-2.00;98244;;;;566852;249;24040;-74
2023/03/10 07:10:29;;;;;;;5.27;3.97;;;-0.90;99.90;-2.00;98237;;;;555759;253;24034;-76
2023/03/10 07:12:57;;;;;;;5.73;3.90;;;-0.80;99.90;-1.90;98245;;;;566924;249;23990;-77
2023/03/10 07:15:29;;;;;;;6.20;4.07;;;-0.80;99.90;-1.80;98228;;;;557027;253;24026;-75
2023/03/10 07:17:55;;;;;;;6.37;2.43;;;-0.80;99.90;-1.80;98235;;;;567909;248;24021;-72
2023/03/10 07:20:24;;;;;;;5.77;3.67;;;-0.70;99.90;-1.80;98220;;;;569353;248;24085;-76
2023/03/10 07:22:52;;;;;;;0.30;0.30;;;-0.70;99.90;-1.80;98225;;;;576242;247;24018;-73
2023/03/10 07:25:23;;;;;;;1.37;0.97;;;-0.70;99.90;-1.80;98215;;;;567544;249;24045;-77
2023/03/10 07:27:51;;;;;;;0.30;0.30;;;-0.70;99.90;-1.80;98221;;;;567304;249;24046;-77
2023/03/10 07:30:19;;;;;;;0.30;0.30;;;-0.60;99.90;-1.70;98216;;;;567349;249;24035;-77
2023/03/10 07:32:47;;;;;;;0.97;0.97;;;-0.60;99.90;-1.70;98215;;;;567485;249;24031;-75
2023/03/10 07:35:15;;;;;;;1.00;1.00;;;-0.60;99.90;-1.60;98207;;;;567131;249;24031;-73
2023/03/10 07:37:43;;;;;;;0.73;0.73;;;-0.50;99.90;-1.50;98192;;;;567489;249;25056;-74
2023/03/10 07:40:11;;;;;;;1.33;1.00;;;-0.40;99.90;-1.50;98205;;;;567145;249;25085;-77
2023/03/10 07:42:39;;;;;;;0.50;0.50;;;-0.40;99.90;-1.50;98213;;;;563193;249;24009;-74
2023/03/10 07:45:11;;;;;;;0.77;0.63;;;-0.30;99.90;-1.50;98208;;;;575796;248;24011;-72
2023/03/10 07:47:35;;;;;;;0.33;0.33;;;-0.40;99.90;-1.50;98203;;;;566707;249;24017;-76
2023/03/10 07:50:08;;;;;;;1.23;1.00;;;-0.40;99.90;-1.50;98208;;;;567271;249;24012;-78
2023/03/10 07:52:32;;;;;;;0.40;0.40;;;-0.30;99.90;-1.50;98195;;;;563123;249;24120;-74
2023/03/10 07:55:00;;;;;;;1.10;1.10;;;-0.30;99.90;-1.50;98195;;;;567188;249;23992;-77
2023/03/10 07:57:28;;;;;;;0.37;0.37;;;-0.30;99.90;-1.40;98193;;;;566918;249;24020;-76
2023/03/10 07:59:56;;;;;;;3.83;3.67;;;-0.30;99.90;-1.40;98195;;;;566826;249;24001;-80
2023/03/10 08:02:25;;;;;;;0.33;0.33;;;-0.20;99.90;-1.40;98192;;;;563921;249;23998;-78
2023/03/10 08:04:53;;;;;;;0.43;0.43;;;-0.20;99.90;-1.40;98193;;;;566915;249;23991;-72
2023/03/10 08:07:21;;;;;;;0.70;0.70;;;-0.20;99.90;-1.40;98183;;;;575540;248;24010;-79
2023/03/10 08:09:49;;;;;;;1.80;1.70;;;-0.20;99.90;-1.30;98181;;;;566959;249;24034;-78
2023/03/10 08:12:17;;;;;;;1.90;1.80;;;-0.20;99.90;-1.30;98172;;;;566710;249;24017;-73
2023/03/10 08:14:45;;;;;;;0.23;0.23;;;-0.20;99.90;-1.20;98168;;;;566944;249;24061;-74
2023/03/10 08:17:13;;;;;;;0.80;0.80;;;-0.10;99.90;-1.20;98165;;;;566854;249;24013;-72
2023/03/10 08:19:41;;;;;;;0.20;0.20;;;-0.10;99.90;-1.20;98164;;;;567007;249;23987;-74
2023/03/10 08:22:09;;;;;;;1.57;1.47;;;0.00;99.90;-1.20;98156;;;;575438;248;23998;-76
2023/03/10 08:24:37;;;;;;;0.37;0.33;;;-0.10;99.90;-1.10;98160;;;;575419;248;24006;-76
2023/03/10 08:27:04;;;;;;;1.47;1.47;;;0.00;99.90;-1.10;98156;;;;556997;253;24030;-76
2023/03/10 08:29:32;;;;;;;2.10;0.77;;;0.10;99.90;-1.00;98159;;;;572819;248;24033;-78
2023/03/10 08:32:00;;;;;;;0.93;0.93;;;0.10;99.90;-1.00;98148;;;;564058;249;24003;-75
2023/03/10 08:34:29;;;;;;;0.40;0.40;;;0.10;99.90;-1.00;98151;;;;563821;249;24000;-77
2023/03/10 08:36:59;;;;;;;0.23;0.23;;;0.10;99.90;-1.00;98160;;;;557664;253;24016;-77
2023/03/10 08:39:25;;;;;;;0.40;0.40;;;0.10;99.90;-1.10;98143;;;;565170;253;24016;-77
2023/03/10 08:41:53;;;;;;;0.40;0.40;;;0.10;99.90;-1.00;98141;;;;567299;249;24041;-73
2023/03/10 08:44:24;;;;;;;0.70;0.70;;;0.10;99.90;-1.00;98146;;;;563565;249;23998;-74
2023/03/10 08:46:48;;;;;;;0.93;0.63;;;0.10;99.90;-1.00;98131;;;;559861;254;24047;-74
2023/03/10 08:49:16;;;;;;;0.10;0.10;;;0.10;99.90;-1.00;98136;;;;552992;254;24032;-78
2023/03/10 08:51:44;;;;;;;0.10;0.10;;;0.10;99.90;-0.90;98122;;;;567130;249;24015;-77
2023/03/10 08:54:15;;;;;;;0.30;0.30;;;0.20;99.90;-0.90;98130;;;;563564;249;24060;-74
2023/03/10 08:56:46;;;;;;;1.17;1.03;;;0.20;99.90;-0.70;98129;;;;553822;253;24022;-76
2023/03/10 08:59:17;;;;;;;0.30;0.30;;;0.40;99.90;-0.60;98126;;;;564717;252;24032;-77
2023/03/10 09:01:47;;;;;;;1.63;1.57;;;0.50;99.90;-0.60;98124;;;;553531;253;25076;-78
2023/03/10 09:04:15;;;;;;;3.07;2.53;;;0.50;99.90;-0.60;98116;;;;564819;253;24048;-75
2023/03/10 09:06:43;;;;;;;0.97;0.47;;;0.50;99.90;-0.60;98116;;;;566739;249;23987;-72
2023/03/10 09:09:11;;;;;;;0.53;0.53;;;0.50;99.90;-0.60;98107;;;;563018;249;24053;-74
2023/03/10 09:11:40;;;;;;;0.10;0.10;;;0.60;99.90;-0.60;98106;;;;566690;249;24045;-75
2023/03/10 09:14:11;;;;;;;0.10;0.10;;;0.60;99.90;-0.50;98110;;;;563020;249;24033;-74
2023/03/10 09:16:39;;;;;;;0.10;0.10;;;0.60;99.90;-0.50;98112;;;;574924;249;24002;-74
2023/03/10 09:19:03;;;;;;;0.20;0.20;;;0.70;99.90;-0.50;98109;;;;556631;253;24095;-73
2023/03/10 09:21:31;;;;;;;0.43;0.43;;;0.70;99.90;-0.60;98104;;;;556844;254;24013;-74
2023/03/10 09:23:59;;;;;;;0.73;0.73;;;0.60;99.90;-0.50;98104;;;;552826;254;24020;-74
2023/03/10 09:26:27;;;;;;;0.20;0.20;;;0.60;99.90;-0.50;98091;;;;566907;249;24006;-72
2023/03/10 09:28:55;;;;;;;0.20;0.20;;;0.70;99.90;-0.50;98103;;;;556404;254;24189;-73
2023/03/10 09:31:25;;;;;;;0.23;0.23;;;0.70;99.90;-0.40;98104;;;;566909;249;24048;-74
2023/03/10 09:33:53;;;;;;;0.30;0.30;;;0.70;99.90;-0.40;98099;;;;575270;249;24025;-73
2023/03/10 09:36:22;;;;;;;0.10;0.10;;;0.90;99.90;-0.20;98096;;;;563153;249;24021;-72
2023/03/10 09:38:50;;;;;;;0.60;0.33;;;0.90;99.90;-0.20;98105;;;;563028;249;23979;-73
2023/03/10 09:41:42;;;;;;;0.30;0.30;;;1.00;99.90;-0.10;98095;;;;564822;248;24021;-72
2023/03/10 09:44:37;;;;;;;1.23;0.50;;;1.00;99.90;0.00;98087;;;;563857;249;24067;-72
2023/03/10 09:47:10;;;;;;;0.10;0.10;;;1.10;99.90;0.20;98086;;;;557335;253;24093;-73
2023/03/10 09:49:38;;;;;;;0.23;0.23;;;1.30;99.90;0.30;98089;;;;567333;248;24017;-73
2023/03/10 09:52:27;;;;;;;0.37;0.37;;;1.40;99.90;0.20;98091;;;;567155;249;23997;-73
2023/03/10 09:55:14;;;;;;;0.40;0.40;;;1.40;99.90;0.10;98087;;;;554705;254;24141;-73
2023/03/10 09:57:42;;;;;;;0.30;0.30;;;1.40;99.90;0.00;98078;;;;567639;249;24016;-74
2023/03/10 10:00:10;;;;;;;0.30;0.30;;;1.30;99.90;0.10;98082;;;;552983;254;24046;-73
2023/03/10 10:02:43;;;;;;;0.43;0.43;;;1.30;99.90;0.30;98072;;;;567338;249;24050;-73
2023/03/10 10:05:17;;;;;;;0.30;0.30;;;1.50;99.90;0.50;98068;;;;567491;249;24014;-74
2023/03/10 10:07:45;;;;;;;2.57;2.40;;;1.60;99.90;0.40;98063;;;;553453;253;24023;-73
2023/03/10 10:10:29;;;;;;;0.20;0.20;;;1.80;99.90;0.50;98061;;;;567471;249;24024;-79
2023/03/10 10:12:59;;;;;;;0.20;0.20;;;1.70;99.90;0.60;98065;;;;566893;249;24023;-77
2023/03/10 10:15:31;;;;;;;0.73;0.73;;;1.90;99.90;0.70;98058;;;;567262;249;24014;-75
2023/03/10 10:18:14;;;;;;;0.27;0.27;;;2.00;99.90;0.90;98047;;;;556964;253;24022;-74
2023/03/10 10:20:52;;;;;;;1.53;1.13;;;2.10;99.90;1.00;98046;;;;562238;249;23999;-75
2023/03/10 10:23:36;;;;;;;2.00;1.10;;;2.20;99.90;1.20;98049;;;;563363;249;24031;-74
2023/03/10 10:26:13;;;;;;;0.40;0.40;;;2.40;99.90;1.40;98051;;;;567107;249;24039;-75
2023/03/10 10:28:49;;;;;;;0.57;0.57;;;2.60;99.90;1.40;98044;;;;563184;249;24008;-72
2023/03/10 10:31:20;;;;;;;0.33;0.33;;;2.70;99.90;1.60;98047;;;;563232;249;24045;-75
2023/03/10 10:33:55;;;;;;;0.87;0.87;;;2.90;99.90;1.60;98044;;;;566879;249;25052;-74
2023/03/10 10:36:25;;;;;;;1.33;1.27;;;2.90;99.90;1.80;98027;;;;563130;249;24004;-77
2023/03/10 10:38:57;;;;;;;0.90;0.90;;;3.10;99.90;2.10;98026;;;;556686;253;24036;-70
2023/03/10 10:41:21;;;;;;;2.00;1.57;;;3.30;99.90;2.00;98027;;;;551715;254;24038;-72
2023/03/10 10:43:50;;;;;;;3.17;1.77;;;3.50;99.90;2.30;98024;;;;571807;249;24075;-72
2023/03/10 10:46:18;;;;;;;2.73;1.90;;;3.50;99.90;2.60;98018;;;;563171;249;24032;-80
2023/03/10 10:48:46;;;;;;;4.63;2.43;;;3.70;99.90;2.70;98022;;;;556292;253;24089;-71
2023/03/10 10:51:28;;;;;;;2.50;2.17;;;3.90;99.90;2.40;98018;;;;553125;255;24183;-70
2023/03/10 10:53:56;;;;;;;4.07;2.13;;;3.80;99.90;2.50;98015;;;;557555;253;24030;-76
2023/03/10 10:56:27;;;;;;;7.00;3.43;;;3.80;99.90;2.80;98012;;;;557390;253;24063;-80
2023/03/10 10:59:01;;;;;;;3.73;3.00;;;4.00;99.90;2.80;98001;;;;567591;249;24014;-81
2023/03/10 11:01:47;;;;;;;4.03;3.20;;;4.20;99.90;3.00;98005;;;;557519;253;24037;-81
2023/03/10 11:04:15;;;;;;;1.97;1.80;;;4.30;99.90;2.90;98002;;;;558542;253;24042;-78
2023/03/10 11:06:43;;;;;;;4.20;2.77;;;4.30;99.90;2.70;97991;;;;558025;253;24054;-78
2023/03/10 11:09:19;;;;;;;3.10;2.57;;;4.20;99.90;2.30;97992;;;;565935;253;24030;-75
2023/03/10 11:12:09;;;;;;;4.03;2.60;;;4.00;99.90;2.20;97991;;;;567483;248;24003;-77
2023/03/10 11:15:10;;;;;;;3.37;3.07;;;3.70;99.90;2.00;97981;;;;564395;249;24012;-77
2023/03/10 11:17:47;;;;;;;3.60;3.30;;;3.40;99.90;2.10;97991;;;;553620;254;24169;-77
2023/03/10 11:20:26;;;;;;;2.00;1.60;;;3.40;99.90;2.10;97994;;;;568138;249;24070;-77
2023/03/10 11:23:25;;;;;;;3.43;3.13;;;3.30;99.90;1.90;97993;;;;563864;249;24002;-75
2023/03/10 11:26:18;;;;;;;3.27;3.00;;;3.10;99.90;1.70;97986;;;;563904;249;24024;-73
2023/03/10 11:28:52;;;;;;;4.07;2.87;;;3.10;99.90;1.60;97979;;;;550777;254;24148;-71